sensor_id;sensor_type;location;lat;lon;timestamp;pressure;altitude;pressure_sealevel;temperature;humidity
51526;BME280;37611;51.794;21.590;2023-09-30T00:01:46;100223.38;;;15.12;100.00
51526;BME280;37611;51.794;21.590;2023-09-30T00:06:05;100221.94;;;15.07;100.00
51526;BME280;37611;51.794;21.590;2023-09-30T00:30:10;100201.02;;;14.78;100.00
51526;BME280;37611;51.794;21.590;2023-09-30T00:34:51;100195.00;;;14.76;100.00
51526;BME280;37611;51.794;21.590;2023-09-30T00:39:27;100188.45;;;14.74;100.00
51526;BME280;37611;51.794;21.590;2023-09-30T00:48:57;100179.80;;;14.68;100.00
51526;BME280;37611;51.794;21.590;2023-09-30T00:53:38;100178.05;;;14.66;100.00
51526;BME280;37611;51.794;21.590;2023-09-30T00:58:18;100180.02;;;14.65;100.00
51526;BME280;37611;51.794;21.590;2023-09-30T01:17:04;100174.13;;;14.70;100.00
51526;BME280;37611;51.794;21.590;2023-09-30T01:36:08;100171.86;;;14.79;100.00
51526;BME280;37611;51.794;21.590;2023-09-30T01:40:32;100170.59;;;14.76;100.00
51526;BME280;37611;51.794;21.590;2023-09-30T01:45:17;100171.73;;;14.74;100.00
51526;BME280;37611;51.794;21.590;2023-09-30T01:54:33;100170.77;;;14.70;100.00
51526;BME280;37611;51.794;21.590;2023-09-30T02:08:41;100170.13;;;14.60;100.00
51526;BME280;37611;51.794;21.590;2023-09-30T02:22:50;100154.86;;;14.55;100.00
51526;BME280;37611;51.794;21.590;2023-09-30T02:41:40;100142.59;;;14.64;100.00
51526;BME280;37611;51.794;21.590;2023-09-30T02:46:25;100144.70;;;14.64;100.00
51526;BME280;37611;51.794;21.590;2023-09-30T02:50:42;100141.16;;;14.64;100.00
51526;BME280;37611;51.794;21.590;2023-09-30T02:55:21;100140.73;;;14.63;100.00
51526;BME280;37611;51.794;21.590;2023-09-30T03:00:03;100140.46;;;14.64;100.00
51526;BME280;37611;51.794;21.590;2023-09-30T03:14:41;100124.69;;;14.71;100.00
51526;BME280;37611;51.794;21.590;2023-09-30T03:19:14;100126.80;;;14.69;100.00
51526;BME280;37611;51.794;21.590;2023-09-30T03:28:47;100122.48;;;14.73;100.00
51526;BME280;37611;51.794;21.590;2023-09-30T03:33:21;100110.21;;;14.74;100.00
51526;BME280;37611;51.794;21.590;2023-09-30T03:42:49;100111.84;;;14.78;100.00
51526;BME280;37611;51.794;21.590;2023-09-30T03:47:51;100111.31;;;14.78;100.00
51526;BME280;37611;51.794;21.590;2023-09-30T04:07:22;100119.71;;;14.77;100.00
51526;BME280;37611;51.794;21.590;2023-09-30T04:16:55;100111.86;;;14.72;100.00
51526;BME280;37611;51.794;21.590;2023-09-30T04:45:12;100117.41;;;14.90;100.00
51526;BME280;37611;51.794;21.590;2023-09-30T04:49:43;100118.23;;;14.90;100.00
51526;BME280;37611;51.794;21.590;2023-09-30T04:58:47;100120.74;;;14.86;100.00
51526;BME280;37611;51.794;21.590;2023-09-30T05:12:47;100126.48;;;14.87;100.00
51526;BME280;37611;51.794;21.590;2023-09-30T05:17:45;100131.67;;;14.93;100.00
51526;BME280;37611;51.794;21.590;2023-09-30T05:26:50;100137.17;;;14.93;100.00
51526;BME280;37611;51.794;21.590;2023-09-30T05:31:25;100139.90;;;14.92;100.00
51526;BME280;37611;51.794;21.590;2023-09-30T05:36:00;100142.54;;;14.93;100.00
51526;BME280;37611;51.794;21.590;2023-09-30T05:50:11;100150.20;;;15.02;100.00
51526;BME280;37611;51.794;21.590;2023-09-30T05:54:56;100151.71;;;15.01;100.00
51526;BME280;37611;51.794;21.590;2023-09-30T06:04:16;100147.77;;;15.11;100.00
51526;BME280;37611;51.794;21.590;2023-09-30T06:08:46;100154.61;;;15.14;100.00
51526;BME280;37611;51.794;21.590;2023-09-30T06:13:28;100162.94;;;15.15;100.00
51526;BME280;37611;51.794;21.590;2023-09-30T06:22:29;100164.09;;;15.23;100.00
51526;BME280;37611;51.794;21.590;2023-09-30T06:36:32;100181.10;;;15.36;100.00
51526;BME280;37611;51.794;21.590;2023-09-30T06:41:38;100180.98;;;15.36;100.00
51526;BME280;37611;51.794;21.590;2023-09-30T06:50:23;100188.13;;;15.46;100.00
51526;BME280;37611;51.794;21.590;2023-09-30T06:59:34;100204.04;;;15.53;100.00
51526;BME280;37611;51.794;21.590;2023-09-30T07:08:33;100206.98;;;15.61;100.00
51526;BME280;37611;51.794;21.590;2023-09-30T07:13:01;100207.42;;;15.63;100.00
51526;BME280;37611;51.794;21.590;2023-09-30T07:22:30;100211.83;;;15.70;100.00
51526;BME280;37611;51.794;21.590;2023-09-30T07:26:46;100213.06;;;15.76;100.00
51526;BME280;37611;51.794;21.590;2023-09-30T07:31:17;100218.13;;;15.79;100.00
51526;BME280;37611;51.794;21.590;2023-09-30T07:40:11;100222.70;;;15.75;100.00
51526;BME280;37611;51.794;21.590;2023-09-30T07:44:22;100224.40;;;15.71;100.00
51526;BME280;37611;51.794;21.590;2023-09-30T07:48:49;100225.40;;;15.70;100.00
51526;BME280;37611;51.794;21.590;2023-09-30T07:52:54;100230.08;;;15.69;100.00
51526;BME280;37611;51.794;21.590;2023-09-30T07:57:30;100234.59;;;15.67;100.00
51526;BME280;37611;51.794;21.590;2023-09-30T08:01:37;100236.36;;;15.65;100.00
51526;BME280;37611;51.794;21.590;2023-09-30T08:06:02;100239.40;;;15.66;100.00
51526;BME280;37611;51.794;21.590;2023-09-30T08:10:37;100235.61;;;15.69;100.00
51526;BME280;37611;51.794;21.590;2023-09-30T08:14:43;100233.42;;;15.75;100.00
51526;BME280;37611;51.794;21.590;2023-09-30T08:23:27;100229.67;;;15.86;100.00
51526;BME280;37611;51.794;21.590;2023-09-30T08:27:41;100234.09;;;15.94;100.00
51526;BME280;37611;51.794;21.590;2023-09-30T08:32:10;100235.20;;;16.01;100.00
51526;BME280;37611;51.794;21.590;2023-09-30T08:36:28;100228.75;;;16.09;100.00
51526;BME280;37611;51.794;21.590;2023-09-30T08:40:38;100232.02;;;16.21;100.00
51526;BME280;37611;51.794;21.590;2023-09-30T08:45:21;100227.58;;;16.31;100.00
51526;BME280;37611;51.794;21.590;2023-09-30T08:49:59;100231.21;;;16.37;100.00
51526;BME280;37611;51.794;21.590;2023-09-30T08:54:17;100234.69;;;16.44;100.00
51526;BME280;37611;51.794;21.590;2023-09-30T08:58:30;100242.20;;;16.44;100.00
51526;BME280;37611;51.794;21.590;2023-09-30T09:06:58;100241.02;;;16.51;100.00
51526;BME280;37611;51.794;21.590;2023-09-30T09:11:05;100238.94;;;16.54;100.00
51526;BME280;37611;51.794;21.590;2023-09-30T09:15:22;100229.99;;;16.53;100.00
51526;BME280;37611;51.794;21.590;2023-09-30T09:19:23;100230.89;;;16.53;100.00
51526;BME280;37611;51.794;21.590;2023-09-30T09:23:25;100228.48;;;16.60;100.00
51526;BME280;37611;51.794;21.590;2023-09-30T09:27:26;100229.46;;;16.68;100.00
51526;BME280;37611;51.794;21.590;2023-09-30T09:31:36;100231.02;;;16.72;100.00
51526;BME280;37611;51.794;21.590;2023-09-30T09:35:49;100230.55;;;16.84;100.00
51526;BME280;37611;51.794;21.590;2023-09-30T09:40:12;100244.29;;;16.93;100.00
51526;BME280;37611;51.794;21.590;2023-09-30T09:44:26;100244.90;;;16.98;100.00
51526;BME280;37611;51.794;21.590;2023-09-30T09:52:59;100246.59;;;17.13;100.00
51526;BME280;37611;51.794;21.590;2023-09-30T09:57:12;100250.95;;;17.17;100.00
51526;BME280;37611;51.794;21.590;2023-09-30T10:01:15;100251.83;;;17.11;100.00
51526;BME280;37611;51.794;21.590;2023-09-30T10:05:26;100249.48;;;17.07;100.00
51526;BME280;37611;51.794;21.590;2023-09-30T10:09:37;100253.26;;;17.00;100.00
51526;BME280;37611;51.794;21.590;2023-09-30T10:13:55;100258.45;;;17.00;100.00
51526;BME280;37611;51.794;21.590;2023-09-30T10:18:11;100260.64;;;16.99;100.00
51526;BME280;37611;51.794;21.590;2023-09-30T10:22:27;100262.63;;;16.98;100.00
51526;BME280;37611;51.794;21.590;2023-09-30T10:26:39;100259.34;;;17.00;100.00
51526;BME280;37611;51.794;21.590;2023-09-30T10:31:13;100261.50;;;17.01;100.00
51526;BME280;37611;51.794;21.590;2023-09-30T10:40:08;100268.52;;;17.02;100.00
51526;BME280;37611;51.794;21.590;2023-09-30T10:48:50;100268.07;;;17.02;100.00
51526;BME280;37611;51.794;21.590;2023-09-30T10:53:12;100275.61;;;17.06;100.00
51526;BME280;37611;51.794;21.590;2023-09-30T10:57:58;100275.17;;;17.09;100.00
51526;BME280;37611;51.794;21.590;2023-09-30T11:02:02;100281.02;;;17.15;100.00
51526;BME280;37611;51.794;21.590;2023-09-30T11:06:23;100287.52;;;17.19;100.00
51526;BME280;37611;51.794;21.590;2023-09-30T11:10:30;100288.74;;;17.20;100.00
51526;BME280;37611;51.794;21.590;2023-09-30T11:14:33;100289.96;;;17.21;100.00
51526;BME280;37611;51.794;21.590;2023-09-30T11:18:55;100293.34;;;17.24;100.00
51526;BME280;37611;51.794;21.590;2023-09-30T11:23:08;100295.28;;;17.23;100.00
51526;BME280;37611;51.794;21.590;2023-09-30T11:27:38;100296.16;;;17.22;100.00
51526;BME280;37611;51.794;21.590;2023-09-30T11:31:43;100299.23;;;17.22;100.00
51526;BME280;37611;51.794;21.590;2023-09-30T11:35:59;100303.27;;;17.24;100.00
51526;BME280;37611;51.794;21.590;2023-09-30T11:40:12;100303.60;;;17.23;100.00
51526;BME280;37611;51.794;21.590;2023-09-30T11:44:16;100305.56;;;17.23;100.00
51526;BME280;37611;51.794;21.590;2023-09-30T11:48:21;100305.66;;;17.28;100.00
51526;BME280;37611;51.794;21.590;2023-09-30T11:52:26;100308.27;;;17.31;100.00
51526;BME280;37611;51.794;21.590;2023-09-30T11:56:33;100313.23;;;17.28;100.00
51526;BME280;37611;51.794;21.590;2023-09-30T12:00:41;100316.75;;;17.23;100.00
51526;BME280;37611;51.794;21.590;2023-09-30T12:09:42;100321.84;;;17.07;100.00
51526;BME280;37611;51.794;21.590;2023-09-30T12:13:46;100322.87;;;17.00;100.00
51526;BME280;37611;51.794;21.590;2023-09-30T12:17:49;100329.58;;;16.88;100.00
51526;BME280;37611;51.794;21.590;2023-09-30T12:21:53;100333.83;;;16.78;100.00
51526;BME280;37611;51.794;21.590;2023-09-30T12:26:07;100343.85;;;16.69;100.00
51526;BME280;37611;51.794;21.590;2023-09-30T12:30:11;100350.80;;;16.63;100.00
51526;BME280;37611;51.794;21.590;2023-09-30T12:34:15;100353.41;;;16.60;100.00
51526;BME280;37611;51.794;21.590;2023-09-30T12:38:28;100350.13;;;16.55;100.00
51526;BME280;37611;51.794;21.590;2023-09-30T12:42:42;100351.27;;;16.52;100.00
51526;BME280;37611;51.794;21.590;2023-09-30T12:46:47;100346.81;;;16.52;100.00
51526;BME280;37611;51.794;21.590;2023-09-30T12:50:59;100348.55;;;16.56;100.00
51526;BME280;37611;51.794;21.590;2023-09-30T12:55:21;100353.50;;;16.62;100.00
51526;BME280;37611;51.794;21.590;2023-09-30T12:59:31;100358.29;;;16.67;100.00
51526;BME280;37611;51.794;21.590;2023-09-30T13:03:39;100359.79;;;16.74;100.00
51526;BME280;37611;51.794;21.590;2023-09-30T13:07:52;100365.86;;;16.81;100.00
51526;BME280;37611;51.794;21.590;2023-09-30T13:11:54;100366.38;;;16.82;100.00
51526;BME280;37611;51.794;21.590;2023-09-30T13:15:58;100365.56;;;16.80;100.00
51526;BME280;37611;51.794;21.590;2023-09-30T13:20:11;100370.02;;;16.75;100.00
51526;BME280;37611;51.794;21.590;2023-09-30T13:24:26;100370.41;;;16.72;100.00
51526;BME280;37611;51.794;21.590;2023-09-30T13:28:38;100369.59;;;16.69;100.00
51526;BME280;37611;51.794;21.590;2023-09-30T13:32:57;100374.02;;;16.73;100.00
51526;BME280;37611;51.794;21.590;2023-09-30T13:37:07;100375.77;;;16.83;100.00
51526;BME280;37611;51.794;21.590;2023-09-30T13:41:35;100373.01;;;16.96;100.00
51526;BME280;37611;51.794;21.590;2023-09-30T13:45:42;100379.13;;;17.09;100.00
51526;BME280;37611;51.794;21.590;2023-09-30T13:50:04;100381.55;;;17.25;100.00
51526;BME280;37611;51.794;21.590;2023-09-30T13:54:14;100376.00;;;17.38;100.00
51526;BME280;37611;51.794;21.590;2023-09-30T13:58:25;100376.89;;;17.45;100.00
51526;BME280;37611;51.794;21.590;2023-09-30T14:02:40;100375.55;;;17.50;100.00
51526;BME280;37611;51.794;21.590;2023-09-30T14:06:53;100375.95;;;17.52;100.00
51526;BME280;37611;51.794;21.590;2023-09-30T14:11:07;100379.13;;;17.48;100.00
51526;BME280;37611;51.794;21.590;2023-09-30T14:15:17;100386.38;;;17.49;100.00
51526;BME280;37611;51.794;21.590;2023-09-30T14:19:21;100381.40;;;17.50;100.00
51526;BME280;37611;51.794;21.590;2023-09-30T14:23:23;100371.86;;;17.48;100.00
51526;BME280;37611;51.794;21.590;2023-09-30T14:27:30;100375.10;;;17.50;100.00
51526;BME280;37611;51.794;21.590;2023-09-30T14:31:32;100380.86;;;17.53;100.00
51526;BME280;37611;51.794;21.590;2023-09-30T14:35:36;100376.41;;;17.50;100.00
51526;BME280;37611;51.794;21.590;2023-09-30T14:39:37;100373.79;;;17.48;100.00
51526;BME280;37611;51.794;21.590;2023-09-30T14:44:31;100378.57;;;17.48;100.00
51526;BME280;37611;51.794;21.590;2023-09-30T14:48:41;100392.20;;;17.44;100.00
51526;BME280;37611;51.794;21.590;2023-09-30T14:52:44;100391.94;;;17.39;100.00
51526;BME280;37611;51.794;21.590;2023-09-30T15:01:31;100395.95;;;17.32;100.00
51526;BME280;37611;51.794;21.590;2023-09-30T15:05:42;100396.04;;;17.30;100.00
51526;BME280;37611;51.794;21.590;2023-09-30T15:09:49;100394.92;;;17.24;100.00
51526;BME280;37611;51.794;21.590;2023-09-30T15:13:56;100393.56;;;17.17;100.00
51526;BME280;37611;51.794;21.590;2023-09-30T15:18:09;100398.17;;;17.08;100.00
51526;BME280;37611;51.794;21.590;2023-09-30T15:22:43;100402.97;;;16.99;100.00
51526;BME280;37611;51.794;21.590;2023-09-30T15:27:06;100404.84;;;16.89;100.00
51526;BME280;37611;51.794;21.590;2023-09-30T15:31:31;100409.88;;;16.76;100.00
51526;BME280;37611;51.794;21.590;2023-09-30T15:35:33;100415.10;;;16.65;100.00
51526;BME280;37611;51.794;21.590;2023-09-30T15:39:45;100418.94;;;16.53;100.00
51526;BME280;37611;51.794;21.590;2023-09-30T15:44:09;100421.52;;;16.41;100.00
51526;BME280;37611;51.794;21.590;2023-09-30T15:48:50;100426.49;;;16.31;100.00
51526;BME280;37611;51.794;21.590;2023-09-30T15:53:26;100432.05;;;16.21;100.00
51526;BME280;37611;51.794;21.590;2023-09-30T15:57:50;100437.31;;;16.11;100.00
51526;BME280;37611;51.794;21.590;2023-09-30T16:02:23;100439.45;;;15.97;100.00
51526;BME280;37611;51.794;21.590;2023-09-30T16:06:28;100440.02;;;15.84;100.00
51526;BME280;37611;51.794;21.590;2023-09-30T16:10:37;100449.70;;;15.72;100.00
51526;BME280;37611;51.794;21.590;2023-09-30T16:14:56;100458.28;;;15.60;100.00
51526;BME280;37611;51.794;21.590;2023-09-30T16:19:21;100461.33;;;15.46;100.00
51526;BME280;37611;51.794;21.590;2023-09-30T16:28:40;100471.20;;;15.26;100.00
51526;BME280;37611;51.794;21.590;2023-09-30T17:06:00;100507.92;;;14.39;100.00
51526;BME280;37611;51.794;21.590;2023-09-30T17:10:48;100513.96;;;14.31;100.00
51526;BME280;37611;51.794;21.590;2023-09-30T17:15:20;100516.43;;;14.24;100.00
51526;BME280;37611;51.794;21.590;2023-09-30T17:19:48;100516.81;;;14.12;100.00
51526;BME280;37611;51.794;21.590;2023-09-30T17:24:12;100517.71;;;14.05;100.00
51526;BME280;37611;51.794;21.590;2023-09-30T17:28:42;100518.46;;;14.00;100.00
51526;BME280;37611;51.794;21.590;2023-09-30T17:33:04;100520.83;;;13.96;100.00
51526;BME280;37611;51.794;21.590;2023-09-30T17:37:36;100527.12;;;13.91;100.00
51526;BME280;37611;51.794;21.590;2023-09-30T17:42:07;100527.42;;;13.88;100.00
51526;BME280;37611;51.794;21.590;2023-09-30T17:46:31;100528.41;;;13.82;100.00
51526;BME280;37611;51.794;21.590;2023-09-30T17:51:18;100532.59;;;13.78;100.00
51526;BME280;37611;51.794;21.590;2023-09-30T17:55:59;100534.33;;;13.75;100.00
51526;BME280;37611;51.794;21.590;2023-09-30T18:00:46;100540.30;;;13.67;100.00
51526;BME280;37611;51.794;21.590;2023-09-30T18:14:06;100549.73;;;13.51;100.00
51526;BME280;37611;51.794;21.590;2023-09-30T18:18:39;100554.13;;;13.48;100.00
51526;BME280;37611;51.794;21.590;2023-09-30T18:32:21;100563.77;;;13.34;100.00
51526;BME280;37611;51.794;21.590;2023-09-30T18:46:18;100570.77;;;13.19;100.00
51526;BME280;37611;51.794;21.590;2023-09-30T18:50:40;100576.90;;;13.14;100.00
51526;BME280;37611;51.794;21.590;2023-09-30T18:55:28;100578.30;;;13.11;100.00
51526;BME280;37611;51.794;21.590;2023-09-30T19:04:40;100580.95;;;13.02;100.00
51526;BME280;37611;51.794;21.590;2023-09-30T19:23:06;100575.85;;;12.61;100.00
51526;BME280;37611;51.794;21.590;2023-09-30T19:27:37;100574.95;;;12.52;100.00
51526;BME280;37611;51.794;21.590;2023-09-30T19:32:21;100579.73;;;12.39;100.00
51526;BME280;37611;51.794;21.590;2023-09-30T19:41:43;100585.25;;;12.19;100.00
51526;BME280;37611;51.794;21.590;2023-09-30T19:56:34;100599.13;;;12.00;100.00
51526;BME280;37611;51.794;21.590;2023-09-30T20:01:20;100603.42;;;11.94;100.00
51526;BME280;37611;51.794;21.590;2023-09-30T20:05:40;100605.10;;;11.89;100.00
51526;BME280;37611;51.794;21.590;2023-09-30T20:15:09;100617.12;;;11.87;100.00
51526;BME280;37611;51.794;21.590;2023-09-30T20:24:30;100619.28;;;11.80;100.00
51526;BME280;37611;51.794;21.590;2023-09-30T20:29:25;100620.56;;;11.77;100.00
51526;BME280;37611;51.794;21.590;2023-09-30T20:43:17;100632.44;;;11.63;100.00
51526;BME280;37611;51.794;21.590;2023-09-30T20:47:40;100636.64;;;11.56;100.00
51526;BME280;37611;51.794;21.590;2023-09-30T20:56:48;100639.73;;;11.57;100.00
51526;BME280;37611;51.794;21.590;2023-09-30T21:06:21;100634.54;;;11.67;100.00
51526;BME280;37611;51.794;21.590;2023-09-30T21:20:35;100637.28;;;11.75;100.00
51526;BME280;37611;51.794;21.590;2023-09-30T21:25:10;100638.89;;;11.71;100.00
51526;BME280;37611;51.794;21.590;2023-09-30T21:29:26;100647.02;;;11.65;100.00
51526;BME280;37611;51.794;21.590;2023-09-30T21:33:47;100647.77;;;11.61;100.00
51526;BME280;37611;51.794;21.590;2023-09-30T21:48:15;100650.27;;;11.52;100.00
51526;BME280;37611;51.794;21.590;2023-09-30T21:52:39;100660.96;;;11.50;100.00
51526;BME280;37611;51.794;21.590;2023-09-30T21:57:00;100662.56;;;11.49;100.00
51526;BME280;37611;51.794;21.590;2023-09-30T22:06:21;100666.92;;;11.47;100.00
51526;BME280;37611;51.794;21.590;2023-09-30T22:10:53;100675.77;;;11.48;100.00
51526;BME280;37611;51.794;21.590;2023-09-30T22:15:37;100675.76;;;11.50;100.00
51526;BME280;37611;51.794;21.590;2023-09-30T22:20:27;100669.04;;;11.51;100.00
51526;BME280;37611;51.794;21.590;2023-09-30T22:25:09;100664.58;;;11.49;100.00
51526;BME280;37611;51.794;21.590;2023-09-30T22:38:52;100662.66;;;11.28;100.00
51526;BME280;37611;51.794;21.590;2023-09-30T22:42:56;100667.75;;;11.23;100.00
51526;BME280;37611;51.794;21.590;2023-09-30T22:52:22;100671.77;;;11.10;100.00
51526;BME280;37611;51.794;21.590;2023-09-30T22:57:10;100667.89;;;11.02;100.00
51526;BME280;37611;51.794;21.590;2023-09-30T23:10:55;100659.78;;;10.77;100.00
51526;BME280;37611;51.794;21.590;2023-09-30T23:25:13;100670.66;;;10.61;100.00
51526;BME280;37611;51.794;21.590;2023-09-30T23:48:53;100687.45;;;10.19;100.00
51526;BME280;37611;51.794;21.590;2023-09-30T23:58:19;100680.61;;;10.07;100.00
